createdAt,value
2022-08-26T00:01:55.703Z,48.40
2022-08-26T00:04:25.459Z,48.50
2022-08-26T00:06:55.048Z,48.70
2022-08-26T00:09:24.756Z,48.80
2022-08-26T00:11:53.824Z,49.30
2022-08-26T00:14:25.941Z,48.80
2022-08-26T00:16:55.379Z,49.10
2022-08-26T00:19:22.854Z,49.10
2022-08-26T00:21:50.488Z,49.20
2022-08-26T00:24:20.832Z,49.30
2022-08-26T00:26:49.457Z,49.40
2022-08-26T00:29:17.722Z,49.50
2022-08-26T00:31:47.395Z,49.40
2022-08-26T00:34:15.947Z,49.80
2022-08-26T00:36:46.700Z,49.60
2022-08-26T00:39:14.015Z,49.60
2022-08-26T00:41:41.782Z,49.70
2022-08-26T00:44:11.045Z,49.90
2022-08-26T00:46:48.576Z,50.00
2022-08-26T00:49:35.898Z,50.10
2022-08-26T00:52:12.117Z,50.30
2022-08-26T00:54:48.409Z,50.30
2022-08-26T00:57:18.637Z,50.20
2022-08-26T00:59:52.982Z,50.50
2022-08-26T01:02:21.474Z,50.50
2022-08-26T01:04:55.815Z,50.50
2022-08-26T01:07:26.237Z,50.50
2022-08-26T01:09:55.569Z,50.70
2022-08-26T01:12:26.186Z,50.70
2022-08-26T01:14:53.692Z,50.80
2022-08-26T01:17:20.562Z,50.80
2022-08-26T01:19:57.454Z,50.60
2022-08-26T01:22:34.350Z,50.60
2022-08-26T01:25:03.821Z,50.90
2022-08-26T01:27:32.912Z,50.90
2022-08-26T01:30:05.059Z,51.10
2022-08-26T01:32:33.603Z,51.30
2022-08-26T01:35:02.015Z,51.30
2022-08-26T01:37:36.238Z,51.40
2022-08-26T01:40:09.423Z,52.00
2022-08-26T01:42:36.504Z,51.50
2022-08-26T01:45:15.371Z,51.50
2022-08-26T01:47:43.146Z,51.90
2022-08-26T01:50:28.250Z,51.60
2022-08-26T01:53:02.123Z,52.00
2022-08-26T01:55:33.185Z,51.80
2022-08-26T01:58:06.413Z,51.90
2022-08-26T02:00:35.631Z,52.10
2022-08-26T02:03:18.224Z,52.00
2022-08-26T02:05:59.110Z,52.60
2022-08-26T02:08:47.098Z,52.10
2022-08-26T02:11:15.385Z,52.30
2022-08-26T02:14:03.739Z,52.10
2022-08-26T02:16:38.657Z,52.80
2022-08-26T02:19:16.851Z,52.50
2022-08-26T02:21:51.331Z,52.50
2022-08-26T02:24:30.295Z,53.10
2022-08-26T02:26:58.486Z,53.30
2022-08-26T02:29:36.713Z,52.70
2022-08-26T02:32:08.762Z,53.30
2022-08-26T02:34:36.177Z,53.00
2022-08-26T02:37:10.091Z,52.80
2022-08-26T02:39:41.021Z,53.10
2022-08-26T02:42:10.359Z,52.90
2022-08-26T02:44:37.899Z,52.90
2022-08-26T02:47:05.235Z,52.90
2022-08-26T02:49:32.292Z,53.00
2022-08-26T02:52:02.012Z,52.70
2022-08-26T02:54:29.255Z,52.60
2022-08-26T02:56:56.391Z,52.60
2022-08-26T02:59:24.681Z,52.70
2022-08-26T03:01:52.149Z,53.10
2022-08-26T03:04:25.766Z,53.00
2022-08-26T03:06:53.698Z,53.00
2022-08-26T03:09:23.600Z,53.20
2022-08-26T03:11:51.894Z,53.30
2022-08-26T03:14:18.733Z,53.60
2022-08-26T03:16:48.529Z,53.70
2022-08-26T03:19:15.548Z,53.80
2022-08-26T03:21:44.808Z,53.80
2022-08-26T03:24:15.217Z,53.90
2022-08-26T03:26:52.511Z,53.90
2022-08-26T03:29:40.126Z,53.90
2022-08-26T03:32:08.115Z,54.10
2022-08-26T03:34:36.208Z,54.10
2022-08-26T03:37:03.526Z,54.40
2022-08-26T03:39:31.661Z,54.20
2022-08-26T03:41:58.953Z,54.30
2022-08-26T03:44:26.645Z,54.50
2022-08-26T03:46:54.639Z,54.40
2022-08-26T03:49:22.287Z,54.60
2022-08-26T03:51:49.519Z,54.60
2022-08-26T03:54:17.795Z,55.30
2022-08-26T03:56:46.416Z,54.70
2022-08-26T03:59:13.641Z,54.50
2022-08-26T04:01:41.044Z,54.00
2022-08-26T04:04:08.038Z,54.10
2022-08-26T04:06:43.280Z,54.30
2022-08-26T04:09:19.580Z,54.70
2022-08-26T04:11:50.727Z,54.90
2022-08-26T04:14:22.063Z,54.80
2022-08-26T04:16:50.232Z,55.10
2022-08-26T04:19:19.509Z,54.90
2022-08-26T04:21:49.008Z,55.20
2022-08-26T04:24:21.512Z,55.20
2022-08-26T04:26:49.670Z,55.20
2022-08-26T04:29:24.047Z,55.30
2022-08-26T04:31:55.596Z,55.70
2022-08-26T04:34:28.757Z,55.40
2022-08-26T04:36:57.715Z,55.60
2022-08-26T04:39:25.241Z,55.50
2022-08-26T04:41:54.828Z,55.60
2022-08-26T04:44:24.330Z,55.70
2022-08-26T04:46:52.356Z,55.10
2022-08-26T04:49:21.045Z,55.40
2022-08-26T04:51:48.886Z,55.60
2022-08-26T04:54:16.289Z,55.70
2022-08-26T04:56:47.257Z,55.80
2022-08-26T04:59:18.232Z,56.00
2022-08-26T05:01:49.406Z,55.90
2022-08-26T05:04:18.853Z,55.90
2022-08-26T05:06:50.266Z,56.10
2022-08-26T05:09:21.409Z,56.00
2022-08-26T05:11:52.200Z,56.20
2022-08-26T05:14:22.209Z,56.10
2022-08-26T05:16:49.433Z,56.10
2022-08-26T05:19:18.769Z,56.30
2022-08-26T05:21:48.643Z,56.20
2022-08-26T05:24:17.230Z,56.30
2022-08-26T05:26:47.185Z,56.40
2022-08-26T05:29:15.551Z,57.00
2022-08-26T05:31:43.709Z,56.50
2022-08-26T05:34:10.603Z,56.70
2022-08-26T05:36:37.805Z,56.50
2022-08-26T05:39:07.097Z,56.40
2022-08-26T05:41:38.576Z,56.60
2022-08-26T05:44:10.937Z,56.50
2022-08-26T05:46:40.365Z,56.60
2022-08-26T05:49:12.688Z,56.70
2022-08-26T05:51:43.023Z,56.70
2022-08-26T05:54:10.512Z,56.80
2022-08-26T05:56:38.706Z,56.70
2022-08-26T05:59:11.656Z,56.70
2022-08-26T06:01:43.524Z,56.50
2022-08-26T06:04:11.180Z,56.80
2022-08-26T06:06:41.322Z,56.90
2022-08-26T06:09:11.248Z,56.90
2022-08-26T06:11:39.164Z,56.50
2022-08-26T06:14:08.261Z,56.80
2022-08-26T06:16:41.199Z,56.70
2022-08-26T06:19:11.942Z,57.10
2022-08-26T06:21:42.050Z,56.90
2022-08-26T06:24:31.255Z,57.00
2022-08-26T06:27:08.231Z,57.10
2022-08-26T06:29:36.449Z,57.00
2022-08-26T06:32:05.393Z,57.00
2022-08-26T06:34:32.929Z,57.10
2022-08-26T06:37:05.924Z,56.90
2022-08-26T06:39:33.529Z,57.00
2022-08-26T06:42:02.731Z,56.90
2022-08-26T06:44:30.290Z,56.70
2022-08-26T06:46:57.432Z,56.80
2022-08-26T06:49:25.718Z,56.90
2022-08-26T06:52:00.463Z,56.90
2022-08-26T06:54:31.571Z,56.80
2022-08-26T06:56:59.253Z,56.50
2022-08-26T06:59:26.450Z,56.60
2022-08-26T07:01:54.717Z,56.70
2022-08-26T07:04:23.193Z,56.10
2022-08-26T07:06:53.407Z,55.80
2022-08-26T07:09:24.185Z,55.70
2022-08-26T07:11:53.070Z,56.00
2022-08-26T07:14:21.373Z,55.70
2022-08-26T07:16:50.601Z,55.50
2022-08-26T07:19:30.195Z,55.30
2022-08-26T07:22:04.213Z,55.10
2022-08-26T07:24:38.238Z,55.00
2022-08-26T07:27:10.491Z,54.80
2022-08-26T07:29:40.066Z,54.50
2022-08-26T07:32:08.250Z,54.90
2022-08-26T07:34:37.677Z,54.70
2022-08-26T07:37:06.019Z,54.60
2022-08-26T07:39:36.183Z,54.20
2022-08-26T07:42:07.721Z,53.90
2022-08-26T07:44:37.686Z,53.70
2022-08-26T07:47:10.523Z,53.60
2022-08-26T07:49:52.696Z,53.60
2022-08-26T07:52:22.715Z,53.20
2022-08-26T07:54:52.377Z,52.90
2022-08-26T07:57:20.765Z,52.50
2022-08-26T07:59:47.856Z,52.70
2022-08-26T08:02:14.711Z,52.50
2022-08-26T08:04:41.839Z,52.20
2022-08-26T08:07:11.569Z,51.80
2022-08-26T08:09:40.730Z,51.70
2022-08-26T08:12:07.881Z,51.50
2022-08-26T08:14:40.939Z,51.30
2022-08-26T08:17:08.753Z,51.60
2022-08-26T08:19:36.926Z,51.40
2022-08-26T08:22:17.844Z,51.10
2022-08-26T08:24:50.055Z,51.00
2022-08-26T08:27:23.886Z,50.90
2022-08-26T08:29:54.318Z,51.20
2022-08-26T08:32:23.526Z,51.40
2022-08-26T08:34:50.556Z,50.90
2022-08-26T08:37:17.507Z,50.60
2022-08-26T08:39:44.403Z,50.30
2022-08-26T08:42:16.035Z,50.20
2022-08-26T08:44:52.395Z,50.50
2022-08-26T08:47:33.935Z,50.40
2022-08-26T08:50:17.620Z,49.10
2022-08-26T08:52:56.201Z,49.40
2022-08-26T08:55:29.920Z,49.20
2022-08-26T08:58:10.006Z,48.90
2022-08-26T09:00:51.437Z,48.50
2022-08-26T09:03:34.189Z,48.00
2022-08-26T09:06:05.640Z,48.10
2022-08-26T09:08:36.904Z,48.10
2022-08-26T09:11:04.365Z,47.80
2022-08-26T09:13:32.024Z,48.10
2022-08-26T09:16:15.440Z,48.30
2022-08-26T09:19:05.146Z,47.80
2022-08-26T09:21:33.192Z,47.40
2022-08-26T09:24:00.801Z,47.40
2022-08-26T09:26:39.354Z,47.60
2022-08-26T09:29:24.477Z,47.10
2022-08-26T09:32:12.910Z,46.90
2022-08-26T09:35:04.114Z,46.90
2022-08-26T09:37:53.663Z,47.90
2022-08-26T09:40:27.554Z,46.90
2022-08-26T09:43:22.393Z,47.70
2022-08-26T09:45:59.204Z,46.50
2022-08-26T09:48:41.162Z,46.40
2022-08-26T09:51:32.680Z,45.60
2022-08-26T09:54:02.415Z,45.30
2022-08-26T09:56:39.452Z,46.00
2022-08-26T09:59:11.437Z,45.50
2022-08-26T10:01:44.772Z,45.20
2022-08-26T10:04:19.900Z,44.90
2022-08-26T10:07:07.273Z,45.60
2022-08-26T10:09:43.363Z,45.20
2022-08-26T10:12:22.782Z,45.40
2022-08-26T10:14:59.134Z,45.00
2022-08-26T10:17:37.885Z,45.50
2022-08-26T10:20:23.581Z,45.10
2022-08-26T10:23:14.850Z,44.60
2022-08-26T10:26:46.253Z,43.90
2022-08-26T10:29:22.275Z,44.20
2022-08-26T10:32:03.605Z,44.60
2022-08-26T10:34:33.989Z,43.90
2022-08-26T10:37:14.701Z,44.20
2022-08-26T10:39:58.892Z,43.90
2022-08-26T10:42:45.699Z,42.90
2022-08-26T10:45:25.437Z,43.50
2022-08-26T10:48:07.930Z,43.40
2022-08-26T10:50:47.524Z,42.90
2022-08-26T10:53:25.134Z,43.20
2022-08-26T10:56:29.072Z,42.60
2022-08-26T10:59:17.697Z,42.90
2022-08-26T11:02:11.605Z,43.10
2022-08-26T11:05:01.966Z,42.80
2022-08-26T11:07:46.044Z,42.80
2022-08-26T11:10:18.820Z,43.10
2022-08-26T11:13:00.184Z,42.30
2022-08-26T11:15:29.157Z,42.80
2022-08-26T11:18:00.496Z,42.50
2022-08-26T11:20:34.006Z,42.30
2022-08-26T11:23:13.728Z,42.30
2022-08-26T11:25:59.069Z,41.70
2022-08-26T11:28:44.171Z,41.80
2022-08-26T11:31:19.235Z,41.60
2022-08-26T11:33:59.780Z,41.60
2022-08-26T11:36:42.068Z,41.50
2022-08-26T11:39:54.074Z,41.30
2022-08-26T11:42:45.931Z,41.30
2022-08-26T11:45:28.497Z,41.50
2022-08-26T11:47:56.517Z,41.10
2022-08-26T11:50:28.554Z,41.60
2022-08-26T11:53:06.181Z,42.20
2022-08-26T11:55:37.204Z,41.60
2022-08-26T11:58:05.816Z,41.10
2022-08-26T12:01:00.070Z,41.10
2022-08-26T12:03:35.645Z,40.80
2022-08-26T12:06:10.017Z,40.40
2022-08-26T12:08:44.689Z,40.70
2022-08-26T12:11:21.114Z,40.50
2022-08-26T12:14:02.298Z,40.30
2022-08-26T12:16:37.595Z,39.90
2022-08-26T12:19:33.470Z,39.50
2022-08-26T12:22:17.422Z,39.30
2022-08-26T12:24:52.692Z,39.70
2022-08-26T12:27:39.850Z,39.60
2022-08-26T12:30:19.151Z,38.60
2022-08-26T12:33:03.399Z,39.50
2022-08-26T12:35:56.720Z,39.00
2022-08-26T12:38:26.617Z,39.60
2022-08-26T12:40:54.190Z,39.50
2022-08-26T12:43:44.629Z,39.60
2022-08-26T12:46:26.318Z,39.50
2022-08-26T12:48:53.347Z,38.80
2022-08-26T12:51:26.574Z,39.00
2022-08-26T12:53:54.619Z,38.30
2022-08-26T12:56:39.518Z,38.20
2022-08-26T12:59:25.988Z,37.70
2022-08-26T13:01:54.325Z,37.60
2022-08-26T13:04:38.337Z,38.00
2022-08-26T13:07:26.411Z,37.40
2022-08-26T13:09:57.072Z,37.00
2022-08-26T13:12:33.024Z,37.30
2022-08-26T13:15:02.106Z,36.90
2022-08-26T13:17:30.818Z,37.00
2022-08-26T13:20:03.295Z,36.80
2022-08-26T13:22:31.515Z,36.60
2022-08-26T13:24:58.470Z,36.60
2022-08-26T13:27:27.279Z,36.60
2022-08-26T13:29:57.584Z,36.60
2022-08-26T13:32:27.252Z,36.50
2022-08-26T13:34:57.195Z,36.40
2022-08-26T13:37:34.569Z,36.20
2022-08-26T13:40:06.605Z,36.10
2022-08-26T13:42:34.446Z,36.20
2022-08-26T13:45:02.142Z,36.00
2022-08-26T13:47:29.071Z,36.20
2022-08-26T13:49:56.333Z,36.10
2022-08-26T13:52:30.746Z,36.10
2022-08-26T13:55:00.696Z,36.40
2022-08-26T13:57:30.164Z,36.40
2022-08-26T13:59:59.280Z,36.10
2022-08-26T14:02:27.937Z,36.10
2022-08-26T14:04:55.319Z,36.20
2022-08-26T14:07:22.962Z,36.30
2022-08-26T14:09:49.976Z,36.10
2022-08-26T14:12:17.076Z,35.90
2022-08-26T14:14:44.021Z,35.90
2022-08-26T14:17:16.710Z,36.10
2022-08-26T14:19:46.704Z,36.30
2022-08-26T14:22:17.325Z,36.80
2022-08-26T14:24:45.431Z,37.60
2022-08-26T14:27:13.643Z,38.00
2022-08-26T14:29:42.366Z,38.60
2022-08-26T14:32:25.818Z,38.80
2022-08-26T14:34:53.550Z,38.80
2022-08-26T14:37:20.571Z,38.80
2022-08-26T14:39:47.771Z,38.60
2022-08-26T14:42:22.376Z,38.80
2022-08-26T14:44:57.713Z,38.80
2022-08-26T14:47:25.147Z,38.90
2022-08-26T14:49:52.065Z,39.00
2022-08-26T14:52:18.908Z,38.90
2022-08-26T14:54:45.765Z,38.60
2022-08-26T14:57:14.666Z,38.70
2022-08-26T14:59:50.045Z,38.70
2022-08-26T15:02:33.566Z,38.90
2022-08-26T15:05:02.226Z,38.90
2022-08-26T15:07:29.110Z,38.70
2022-08-26T15:09:56.070Z,37.90
2022-08-26T15:12:22.966Z,37.90
2022-08-26T15:14:49.787Z,38.20
2022-08-26T15:17:17.503Z,38.40
2022-08-26T15:19:44.355Z,38.90
2022-08-26T15:22:11.422Z,39.30
2022-08-26T15:24:38.185Z,39.30
2022-08-26T15:27:05.132Z,38.90
2022-08-26T15:29:31.994Z,39.70
2022-08-26T15:32:03.680Z,39.90
2022-08-26T15:34:31.889Z,40.50
2022-08-26T15:36:58.757Z,40.90
2022-08-26T15:39:25.759Z,40.90
2022-08-26T15:41:52.639Z,40.80
2022-08-26T15:44:19.725Z,41.30
2022-08-26T15:46:49.193Z,41.40
2022-08-26T15:49:18.680Z,41.50
2022-08-26T15:51:50.197Z,41.40
2022-08-26T15:54:20.667Z,42.00
2022-08-26T15:56:52.079Z,42.40
2022-08-26T15:59:21.471Z,42.50
2022-08-26T16:01:48.659Z,42.50
2022-08-26T16:04:15.542Z,42.80
2022-08-26T16:06:43.437Z,43.00
2022-08-26T16:09:10.905Z,43.00
2022-08-26T16:11:38.005Z,43.00
2022-08-26T16:14:05.705Z,42.80
2022-08-26T16:16:32.976Z,42.10
2022-08-26T16:19:04.283Z,42.80
2022-08-26T16:21:34.858Z,42.50
2022-08-26T16:24:03.258Z,42.60
2022-08-26T16:26:34.113Z,42.50
2022-08-26T16:29:06.345Z,42.60
2022-08-26T16:31:33.704Z,42.70
2022-08-26T16:34:00.690Z,42.50
2022-08-26T16:36:27.844Z,42.50
2022-08-26T16:38:56.187Z,42.60
2022-08-26T16:41:29.108Z,42.20
2022-08-26T16:43:56.674Z,42.40
2022-08-26T16:46:27.410Z,42.30
2022-08-26T16:48:56.672Z,42.30
2022-08-26T16:51:27.100Z,42.40
2022-08-26T16:53:57.434Z,42.40
2022-08-26T16:56:33.847Z,42.50
2022-08-26T16:59:02.982Z,42.60
2022-08-26T17:01:29.892Z,42.80
2022-08-26T17:03:57.093Z,43.00
2022-08-26T17:06:23.985Z,43.20
2022-08-26T17:08:50.840Z,42.90
2022-08-26T17:11:17.763Z,43.10
2022-08-26T17:13:44.578Z,43.20
2022-08-26T17:16:13.191Z,43.20
2022-08-26T17:18:40.730Z,43.70
2022-08-26T17:21:12.029Z,43.00
2022-08-26T17:23:40.977Z,43.00
2022-08-26T17:26:09.176Z,42.90
2022-08-26T17:28:36.233Z,43.00
2022-08-26T17:31:08.056Z,43.20
2022-08-26T17:33:34.990Z,43.30
2022-08-26T17:36:02.370Z,43.30
2022-08-26T17:38:29.312Z,43.30
2022-08-26T17:40:57.471Z,43.40
2022-08-26T17:43:26.715Z,43.60
2022-08-26T17:46:06.682Z,43.70
2022-08-26T17:48:36.559Z,43.70
2022-08-26T17:51:16.775Z,44.00
2022-08-26T17:53:43.741Z,44.40
2022-08-26T17:56:14.529Z,43.90
2022-08-26T17:58:50.958Z,43.80
2022-08-26T18:01:20.742Z,43.60
2022-08-26T18:03:49.208Z,43.70
2022-08-26T18:06:16.535Z,43.70
2022-08-26T18:08:43.983Z,43.90
2022-08-26T18:11:22.833Z,43.50
2022-08-26T18:13:50.125Z,44.20
2022-08-26T18:16:18.656Z,44.20
2022-08-26T18:18:46.942Z,43.90
2022-08-26T18:21:21.978Z,43.80
2022-08-26T18:23:50.356Z,44.70
2022-08-26T18:26:31.338Z,44.50
2022-08-26T18:28:59.664Z,45.10
2022-08-26T18:31:28.014Z,44.80
2022-08-26T18:33:55.904Z,45.00
2022-08-26T18:36:30.669Z,45.20
2022-08-26T18:38:58.437Z,45.80
2022-08-26T18:41:28.819Z,45.40
2022-08-26T18:43:56.544Z,45.50
2022-08-26T18:46:26.184Z,45.50
2022-08-26T18:48:55.627Z,45.40
2022-08-26T18:51:29.522Z,45.20
2022-08-26T18:53:57.762Z,45.10
2022-08-26T18:56:24.841Z,45.00
2022-08-26T18:58:51.866Z,44.90
2022-08-26T19:01:22.385Z,44.50
2022-08-26T19:03:52.485Z,44.40
2022-08-26T19:06:23.190Z,44.50
2022-08-26T19:08:50.749Z,44.50
2022-08-26T19:11:31.690Z,44.60
2022-08-26T19:14:03.755Z,44.70
2022-08-26T19:16:30.843Z,45.00
2022-08-26T19:19:00.906Z,45.10
2022-08-26T19:21:29.287Z,45.20
2022-08-26T19:23:59.254Z,45.60
2022-08-26T19:26:27.823Z,46.30
2022-08-26T19:28:54.866Z,45.90
2022-08-26T19:31:22.595Z,46.10
2022-08-26T19:33:49.736Z,46.20
2022-08-26T19:36:22.079Z,46.60
2022-08-26T19:38:49.977Z,46.90
2022-08-26T19:41:34.115Z,46.90
2022-08-26T19:44:11.599Z,47.60
2022-08-26T19:46:40.152Z,47.20
2022-08-26T19:49:07.485Z,47.50
2022-08-26T19:51:36.862Z,47.70
2022-08-26T19:54:04.639Z,47.90
2022-08-26T19:56:32.143Z,48.00
2022-08-26T19:58:59.005Z,48.20
2022-08-26T20:01:26.201Z,47.40
2022-08-26T20:03:53.307Z,48.10
2022-08-26T20:06:20.771Z,48.40
2022-08-26T20:08:50.838Z,48.80
2022-08-26T20:11:20.741Z,48.00
2022-08-26T20:13:48.149Z,48.30
2022-08-26T20:16:16.487Z,48.80
2022-08-26T20:19:03.590Z,48.40
2022-08-26T20:21:35.589Z,48.80
2022-08-26T20:24:08.460Z,49.30
2022-08-26T20:26:39.190Z,50.00
2022-08-26T20:29:07.910Z,50.10
2022-08-26T20:31:35.346Z,50.30
2022-08-26T20:34:03.642Z,50.70
2022-08-26T20:36:31.355Z,50.00
2022-08-26T20:38:58.783Z,50.20
2022-08-26T20:41:26.055Z,50.90
2022-08-26T20:43:54.479Z,50.20
2022-08-26T20:46:24.730Z,50.80
2022-08-26T20:48:53.670Z,51.30
2022-08-26T20:51:26.206Z,51.50
2022-08-26T20:53:53.705Z,52.00
2022-08-26T20:56:24.219Z,52.40
2022-08-26T20:58:54.718Z,51.50
2022-08-26T21:01:26.218Z,51.80
2022-08-26T21:03:55.470Z,52.60
2022-08-26T21:06:23.246Z,52.90
2022-08-26T21:08:50.706Z,52.90
2022-08-26T21:11:18.271Z,53.60
2022-08-26T21:14:03.906Z,53.60
2022-08-26T21:16:32.111Z,53.50
2022-08-26T21:19:00.517Z,53.70
2022-08-26T21:21:28.072Z,52.70
2022-08-26T21:23:55.682Z,53.30
2022-08-26T21:26:23.126Z,53.50
2022-08-26T21:28:50.779Z,54.50
2022-08-26T21:31:22.480Z,54.10
2022-08-26T21:33:50.940Z,54.50
2022-08-26T21:36:19.234Z,54.70
2022-08-26T21:38:46.371Z,54.70
2022-08-26T21:41:22.008Z,54.70
2022-08-26T21:43:51.184Z,54.90
2022-08-26T21:46:23.364Z,54.70
2022-08-26T21:48:59.238Z,55.10
2022-08-26T21:51:32.965Z,55.30
2022-08-26T21:54:02.058Z,55.50
2022-08-26T21:56:32.555Z,55.50
2022-08-26T21:59:01.379Z,55.50
2022-08-26T22:01:32.516Z,55.60
2022-08-26T22:03:59.602Z,55.80
2022-08-26T22:06:28.330Z,55.80
2022-08-26T22:08:56.301Z,56.00
2022-08-26T22:11:24.958Z,55.80
2022-08-26T22:13:55.184Z,55.90
2022-08-26T22:16:22.392Z,56.10
2022-08-26T22:18:49.430Z,56.30
2022-08-26T22:21:20.322Z,56.30
2022-08-26T22:23:47.649Z,56.70
2022-08-26T22:26:25.498Z,56.40
2022-08-26T22:28:58.676Z,57.10
2022-08-26T22:31:37.741Z,56.70
2022-08-26T22:34:19.532Z,56.80
2022-08-26T22:36:48.805Z,57.30
2022-08-26T22:39:20.019Z,57.00
2022-08-26T22:41:48.565Z,57.00
2022-08-26T22:44:17.435Z,57.00
2022-08-26T22:46:45.194Z,57.10
2022-08-26T22:49:17.638Z,57.20
2022-08-26T22:51:45.849Z,57.40
2022-08-26T22:54:14.615Z,57.10
2022-08-26T22:56:41.694Z,57.20
2022-08-26T22:59:09.374Z,57.40
2022-08-26T23:01:42.638Z,57.30
2022-08-26T23:04:10.984Z,57.30
2022-08-26T23:06:43.208Z,57.20
2022-08-26T23:09:14.693Z,57.70
2022-08-26T23:11:43.861Z,57.70
2022-08-26T23:14:11.166Z,57.90
2022-08-26T23:16:41.589Z,57.90
2022-08-26T23:19:14.600Z,58.00
2022-08-26T23:21:41.606Z,58.70
2022-08-26T23:24:09.904Z,58.20
2022-08-26T23:26:38.244Z,58.20
2022-08-26T23:29:08.349Z,58.40
2022-08-26T23:31:38.350Z,58.70
2022-08-26T23:34:24.090Z,58.80
2022-08-26T23:36:51.096Z,58.70
2022-08-26T23:39:18.224Z,58.50
2022-08-26T23:41:45.145Z,58.50
2022-08-26T23:44:12.646Z,58.70
2022-08-26T23:46:39.529Z,58.70
2022-08-26T23:49:06.429Z,58.70
2022-08-26T23:51:51.870Z,58.60
2022-08-26T23:54:19.610Z,58.80
2022-08-26T23:56:46.675Z,59.10
2022-08-26T23:59:13.583Z,59.30
